createdAt,value
2022-08-02T00:01:04.341Z,100010.06
2022-08-02T00:03:33.384Z,100018.56
2022-08-02T00:06:02.566Z,100004.31
2022-08-02T00:08:31.064Z,100011.25
2022-08-02T00:11:01.886Z,100012.50
2022-08-02T00:13:31.173Z,100010.50
2022-08-02T00:15:59.534Z,100014.91
2022-08-02T00:18:29.088Z,100001.50
2022-08-02T00:20:57.095Z,100006.03
2022-08-02T00:23:25.548Z,100006.84
2022-08-02T00:25:59.110Z,100008.75
2022-08-02T00:28:28.361Z,100012.91
2022-08-02T00:30:59.286Z,100010.97
2022-08-02T00:34:26.255Z,100015.25
2022-08-02T00:36:17.258Z,100013.78
2022-08-02T00:38:46.732Z,100018.34
2022-08-02T00:41:17.758Z,100013.25
2022-08-02T00:43:49.391Z,100018.91
2022-08-02T00:46:18.884Z,100026.63
2022-08-02T00:48:49.747Z,100031.13
2022-08-02T00:51:18.332Z,100032.00
2022-08-02T00:53:47.797Z,100030.97
2022-08-02T00:56:16.609Z,100032.47
2022-08-02T00:58:45.238Z,100031.09
2022-08-02T01:01:15.910Z,100028.41
2022-08-02T01:03:45.015Z,100033.97
2022-08-02T01:06:16.949Z,100033.69
2022-08-02T01:08:45.152Z,100030.72
2022-08-02T01:11:13.835Z,100025.19
2022-08-02T01:13:43.331Z,100030.19
2022-08-02T01:16:16.788Z,100032.09
2022-08-02T01:18:49.406Z,100028.00
2022-08-02T01:21:27.972Z,100030.09
2022-08-02T01:24:25.005Z,100033.09
2022-08-02T01:27:34.579Z,100029.88
2022-08-02T01:30:04.845Z,100041.16
2022-08-02T01:32:43.100Z,100032.50
2022-08-02T01:35:23.053Z,100033.16
2022-08-02T01:38:01.842Z,100032.97
2022-08-02T01:40:32.365Z,100037.69
2022-08-02T01:43:01.005Z,100041.41
2022-08-02T01:45:32.984Z,100036.13
2022-08-02T01:48:03.617Z,100043.78
2022-08-02T01:50:38.156Z,100038.72
2022-08-02T01:53:11.388Z,100052.06
2022-08-02T01:55:58.480Z,100056.03
2022-08-02T01:58:34.429Z,100069.47
2022-08-02T02:01:07.891Z,100068.22
2022-08-02T02:03:41.632Z,100066.16
2022-08-02T02:06:13.179Z,100067.03
2022-08-02T02:08:44.625Z,100069.31
2022-08-02T02:12:06.175Z,100080.75
2022-08-02T02:14:05.563Z,100069.56
2022-08-02T02:16:35.312Z,100076.19
2022-08-02T02:19:04.481Z,100072.16
2022-08-02T02:21:35.196Z,100073.91
2022-08-02T02:24:05.851Z,100063.25
2022-08-02T02:26:38.313Z,100067.63
2022-08-02T02:29:11.920Z,100064.84
2022-08-02T02:31:45.272Z,100069.78
2022-08-02T02:34:27.262Z,100073.44
2022-08-02T02:36:57.572Z,100070.94
2022-08-02T02:39:28.671Z,100071.94
2022-08-02T02:42:01.603Z,100073.66
2022-08-02T02:44:31.720Z,100081.63
2022-08-02T02:47:00.779Z,100082.31
2022-08-02T02:49:32.523Z,100072.44
2022-08-02T02:52:03.580Z,100074.00
2022-08-02T02:54:35.319Z,100075.13
2022-08-02T02:57:06.112Z,100083.88
2022-08-02T02:59:49.071Z,100078.56
2022-08-02T03:02:19.267Z,100081.53
2022-08-02T03:04:57.247Z,100068.16
2022-08-02T03:07:27.171Z,100067.56
2022-08-02T03:09:55.591Z,100063.56
2022-08-02T03:12:32.226Z,100052.69
2022-08-02T03:17:43.479Z,100054.97
2022-08-02T03:20:15.477Z,100056.00
2022-08-02T03:22:45.344Z,100052.66
2022-08-02T03:25:21.244Z,100062.06
2022-08-02T03:27:50.871Z,100067.87
2022-08-02T03:30:20.975Z,100071.50
2022-08-02T03:32:57.095Z,100073.31
2022-08-02T03:35:32.639Z,100069.72
2022-08-02T03:38:02.628Z,100074.13
2022-08-02T03:40:32.472Z,100073.53
2022-08-02T03:43:04.159Z,100074.53
2022-08-02T03:45:32.166Z,100079.94
2022-08-02T03:48:00.829Z,100083.94
2022-08-02T03:50:29.761Z,100084.44
2022-08-02T03:53:00.080Z,100080.19
2022-08-02T03:55:28.875Z,100081.03
2022-08-02T03:58:00.815Z,100080.47
2022-08-02T04:00:28.940Z,100092.47
2022-08-02T04:02:57.344Z,100091.19
2022-08-02T04:05:25.598Z,100095.66
2022-08-02T04:08:35.244Z,100100.53
2022-08-02T04:11:02.101Z,100091.81
2022-08-02T04:13:36.035Z,100092.06
2022-08-02T04:16:15.110Z,100099.22
2022-08-02T04:18:51.613Z,100099.59
2022-08-02T04:21:22.021Z,100104.66
2022-08-02T04:23:51.219Z,100106.13
2022-08-02T04:26:28.378Z,100106.88
2022-08-02T04:28:57.099Z,100107.09
2022-08-02T04:31:25.941Z,100112.16
2022-08-02T04:33:54.874Z,100110.97
2022-08-02T04:36:31.461Z,100113.03
2022-08-02T04:39:01.333Z,100105.06
2022-08-02T04:41:44.691Z,100113.19
2022-08-02T04:44:14.532Z,100113.91
2022-08-02T04:46:43.876Z,100104.38
2022-08-02T04:49:13.108Z,100105.81
2022-08-02T04:51:46.033Z,100108.59
2022-08-02T04:54:14.773Z,100109.47
2022-08-02T04:56:43.095Z,100111.97
2022-08-02T04:59:13.261Z,100117.47
2022-08-02T05:01:42.615Z,100124.91
2022-08-02T05:04:12.401Z,100124.56
2022-08-02T05:06:42.027Z,100132.53
2022-08-02T05:09:11.159Z,100137.38
2022-08-02T05:11:40.244Z,100137.97
2022-08-02T05:14:09.795Z,100135.78
2022-08-02T05:16:37.964Z,100136.63
2022-08-02T05:19:06.163Z,100136.97
2022-08-02T05:21:34.548Z,100145.81
2022-08-02T05:24:05.317Z,100150.94
2022-08-02T05:26:42.833Z,100149.44
2022-08-02T05:29:15.885Z,100148.94
2022-08-02T05:31:46.018Z,100155.09
2022-08-02T05:34:14.711Z,100162.72
2022-08-02T05:36:43.383Z,100160.03
2022-08-02T05:39:18.652Z,100163.53
2022-08-02T05:41:50.085Z,100167.91
2022-08-02T05:44:19.690Z,100168.88
2022-08-02T05:46:47.870Z,100173.09
2022-08-02T05:49:15.610Z,100173.28
2022-08-02T05:52:10.161Z,100172.09
2022-08-02T05:55:04.223Z,100180.94
2022-08-02T05:57:48.860Z,100170.19
2022-08-02T06:00:17.601Z,100168.72
2022-08-02T06:03:26.031Z,100173.22
2022-08-02T06:06:13.329Z,100174.59
2022-08-02T06:08:54.680Z,100182.53
2022-08-02T06:11:24.571Z,100174.19
2022-08-02T06:13:55.060Z,100178.50
2022-08-02T06:16:32.625Z,100178.94
2022-08-02T06:19:02.919Z,100177.72
2022-08-02T06:22:33.526Z,100174.44
2022-08-02T06:24:20.180Z,100172.87
2022-08-02T06:26:55.464Z,100170.50
2022-08-02T06:29:24.032Z,100167.84
2022-08-02T06:31:53.131Z,100179.37
2022-08-02T06:34:21.421Z,100181.91
2022-08-02T06:37:20.248Z,100178.38
2022-08-02T06:39:50.652Z,100178.97
2022-08-02T06:42:26.937Z,100187.22
2022-08-02T06:44:58.145Z,100178.72
2022-08-02T06:47:31.529Z,100182.28
2022-08-02T06:49:59.898Z,100176.22
2022-08-02T06:52:31.780Z,100182.25
2022-08-02T06:55:01.730Z,100187.31
2022-08-02T06:57:31.341Z,100184.22
2022-08-02T07:00:02.609Z,100181.62
2022-08-02T07:02:31.869Z,100187.72
2022-08-02T07:05:07.520Z,100177.41
2022-08-02T07:07:38.802Z,100179.19
2022-08-02T07:10:07.591Z,100182.31
2022-08-02T07:12:36.418Z,100175.97
2022-08-02T07:15:06.854Z,100174.62
2022-08-02T07:17:35.583Z,100167.91
2022-08-02T07:20:04.805Z,100170.00
2022-08-02T07:22:33.039Z,100172.16
2022-08-02T07:25:01.456Z,100166.66
2022-08-02T07:27:29.773Z,100168.84
2022-08-02T07:30:00.291Z,100173.28
2022-08-02T07:32:30.845Z,100161.50
2022-08-02T07:35:02.674Z,100165.69
2022-08-02T07:37:54.699Z,100166.81
2022-08-02T07:40:29.449Z,100156.50
2022-08-02T07:43:03.414Z,100162.75
2022-08-02T07:45:36.020Z,100163.53
2022-08-02T07:48:14.004Z,100159.34
2022-08-02T07:50:42.550Z,100156.16
2022-08-02T07:53:11.073Z,100155.47
2022-08-02T07:55:40.778Z,100161.50
2022-08-02T07:58:12.950Z,100158.53
2022-08-02T08:00:44.729Z,100167.16
2022-08-02T08:03:13.797Z,100162.34
2022-08-02T08:05:44.353Z,100158.66
2022-08-02T08:08:17.165Z,100159.19
2022-08-02T08:10:47.463Z,100158.81
2022-08-02T08:13:16.935Z,100157.47
2022-08-02T08:15:52.005Z,100160.44
2022-08-02T08:19:13.722Z,100162.16
2022-08-02T08:21:44.100Z,100167.00
2022-08-02T08:24:24.620Z,100173.31
2022-08-02T08:26:56.042Z,100166.94
2022-08-02T08:29:26.762Z,100173.63
2022-08-02T08:31:55.115Z,100172.13
2022-08-02T08:34:24.538Z,100168.78
2022-08-02T08:36:55.524Z,100169.94
2022-08-02T08:39:23.430Z,100162.37
2022-08-02T08:41:52.175Z,100164.38
2022-08-02T08:44:21.484Z,100169.03
2022-08-02T08:46:50.445Z,100169.66
2022-08-02T08:49:26.141Z,100168.97
2022-08-02T08:51:56.307Z,100176.88
2022-08-02T08:54:26.651Z,100174.22
2022-08-02T08:56:58.345Z,100167.59
2022-08-02T08:59:27.019Z,100165.63
2022-08-02T09:02:00.768Z,100170.25
2022-08-02T09:04:55.041Z,100169.37
2022-08-02T09:07:24.813Z,100175.84
2022-08-02T09:09:53.235Z,100181.12
2022-08-02T09:12:22.638Z,100177.06
2022-08-02T09:14:51.679Z,100177.88
2022-08-02T09:17:21.415Z,100177.81
2022-08-02T09:20:06.897Z,100181.81
2022-08-02T09:22:36.785Z,100172.22
2022-08-02T09:25:06.370Z,100175.50
2022-08-02T09:27:37.671Z,100173.00
2022-08-02T09:30:11.690Z,100172.09
2022-08-02T09:32:50.135Z,100179.09
2022-08-02T09:36:06.265Z,100180.22
2022-08-02T09:38:28.633Z,100184.22
2022-08-02T09:40:58.133Z,100175.16
2022-08-02T09:43:57.116Z,100181.22
2022-08-02T09:46:42.926Z,100170.34
2022-08-02T09:49:16.682Z,100170.97
2022-08-02T09:51:53.467Z,100168.53
2022-08-02T09:54:26.725Z,100162.06
2022-08-02T09:56:57.710Z,100157.81
2022-08-02T09:59:32.930Z,100151.84
2022-08-02T10:02:04.030Z,100155.53
2022-08-02T10:04:34.568Z,100152.84
2022-08-02T10:07:26.532Z,100153.78
2022-08-02T10:10:00.801Z,100148.75
2022-08-02T10:12:29.916Z,100149.81
2022-08-02T10:15:01.535Z,100155.78
2022-08-02T10:17:35.978Z,100138.84
2022-08-02T10:20:07.708Z,100147.59
2022-08-02T10:22:38.628Z,100140.16
2022-08-02T10:25:08.993Z,100146.09
2022-08-02T10:28:02.932Z,100136.81
2022-08-02T10:30:28.062Z,100137.69
2022-08-02T10:33:08.597Z,100132.22
2022-08-02T10:36:22.621Z,100139.19
2022-08-02T10:39:04.506Z,100130.69
2022-08-02T10:41:48.131Z,100132.72
2022-08-02T10:44:40.877Z,100128.97
2022-08-02T10:47:17.176Z,100125.72
2022-08-02T10:49:50.768Z,100129.97
2022-08-02T10:52:23.904Z,100132.50
2022-08-02T10:54:58.639Z,100137.06
2022-08-02T10:57:37.934Z,100135.37
2022-08-02T11:00:24.589Z,100129.50
2022-08-02T11:02:58.089Z,100137.62
2022-08-02T11:05:42.710Z,100128.72
2022-08-02T11:08:22.854Z,100124.06
2022-08-02T11:11:01.714Z,100126.53
2022-08-02T11:13:30.507Z,100127.50
2022-08-02T11:16:07.707Z,100127.50
2022-08-02T11:18:51.533Z,100117.50
2022-08-02T11:21:26.267Z,100115.25
2022-08-02T11:23:57.052Z,100115.34
2022-08-02T11:26:31.380Z,100114.19
2022-08-02T11:29:01.915Z,100129.34
2022-08-02T11:31:40.960Z,100121.69
2022-08-02T11:34:11.265Z,100120.16
2022-08-02T11:36:59.612Z,100120.28
2022-08-02T11:39:27.885Z,100120.84
2022-08-02T11:41:58.725Z,100111.19
2022-08-02T11:44:28.474Z,100119.84
2022-08-02T11:47:02.035Z,100106.50
2022-08-02T11:49:31.626Z,100109.78
2022-08-02T11:52:06.249Z,100106.66
2022-08-02T11:54:37.188Z,100113.56
2022-08-02T11:57:19.287Z,100119.03
2022-08-02T11:59:53.499Z,100110.56
2022-08-02T12:02:31.865Z,100114.09
2022-08-02T12:05:09.122Z,100118.28
2022-08-02T12:07:45.926Z,100121.63
2022-08-02T12:10:25.838Z,100122.59
2022-08-02T12:12:59.138Z,100117.09
2022-08-02T12:15:31.355Z,100109.19
2022-08-02T12:18:19.181Z,100112.97
2022-08-02T12:20:47.585Z,100113.56
2022-08-02T12:23:15.824Z,100108.03
2022-08-02T12:25:43.625Z,100108.88
2022-08-02T12:28:17.726Z,100112.88
2022-08-02T12:30:54.181Z,100106.91
2022-08-02T12:33:23.367Z,100102.41
2022-08-02T12:35:52.028Z,100088.91
2022-08-02T12:38:20.829Z,100091.50
2022-08-02T12:40:49.687Z,100093.63
2022-08-02T12:43:20.931Z,100093.72
2022-08-02T12:45:49.309Z,100094.66
2022-08-02T12:48:36.762Z,100092.00
2022-08-02T12:51:51.214Z,100098.63
2022-08-02T12:54:36.094Z,100095.09
2022-08-02T12:57:12.743Z,100091.63
2022-08-02T12:59:45.238Z,100081.66
2022-08-02T13:02:14.840Z,100085.41
2022-08-02T13:04:50.108Z,100088.22
2022-08-02T13:07:20.298Z,100079.62
2022-08-02T13:09:50.392Z,100084.78
2022-08-02T13:12:18.823Z,100088.25
2022-08-02T13:14:47.057Z,100086.62
2022-08-02T13:17:15.379Z,100078.19
2022-08-02T13:19:43.595Z,100080.28
2022-08-02T13:22:11.827Z,100075.47
2022-08-02T13:24:57.144Z,100074.00
2022-08-02T13:31:34.473Z,100071.47
2022-08-02T13:38:50.366Z,100060.50
2022-08-02T13:42:31.718Z,100068.66
2022-08-02T13:53:59.205Z,100061.66
2022-08-02T13:57:17.672Z,100056.88
2022-08-02T14:45:05.831Z,100043.69
2022-08-02T14:47:49.486Z,100036.53
2022-08-02T14:50:34.161Z,100033.44
2022-08-02T15:05:42.493Z,100050.72
2022-08-02T15:08:17.102Z,100048.19
2022-08-02T15:11:14.845Z,100049.69
2022-08-02T15:13:48.564Z,100049.25
2022-08-02T15:16:41.682Z,100046.69
2022-08-02T15:19:15.787Z,100051.81
2022-08-02T15:21:56.869Z,100052.56
2022-08-02T15:24:29.341Z,100060.63
2022-08-02T15:27:00.239Z,100063.00
2022-08-02T15:29:38.636Z,100054.19
2022-08-02T15:32:08.313Z,100051.78
2022-08-02T15:34:40.391Z,100048.91
2022-08-02T15:37:13.672Z,100041.63
2022-08-02T15:39:50.364Z,100046.84
2022-08-02T15:42:21.572Z,100046.25
2022-08-02T15:45:03.981Z,100056.22
2022-08-02T15:47:38.484Z,100046.84
2022-08-02T15:50:11.386Z,100048.31
2022-08-02T15:52:44.421Z,100046.84
2022-08-02T15:55:19.493Z,100054.06
2022-08-02T15:57:48.501Z,100048.94
2022-08-02T16:00:24.012Z,100049.31
2022-08-02T16:02:53.588Z,100053.72
2022-08-02T16:05:23.510Z,100051.78
2022-08-02T16:07:53.934Z,100053.31
2022-08-02T16:10:26.904Z,100041.63
2022-08-02T16:13:20.188Z,100047.47
2022-08-02T16:15:50.901Z,100054.97
2022-08-02T16:18:20.538Z,100053.94
2022-08-02T16:20:49.970Z,100057.25
2022-08-02T16:23:21.351Z,100057.97
2022-08-02T16:26:10.663Z,100053.44
2022-08-02T16:28:41.114Z,100064.28
2022-08-02T16:31:11.777Z,100055.91
2022-08-02T16:33:42.266Z,100055.34
2022-08-02T16:36:13.377Z,100066.56
2022-08-02T16:38:49.464Z,100053.28
2022-08-02T16:41:23.674Z,100058.97
2022-08-02T16:44:17.404Z,100062.66
2022-08-02T16:46:47.217Z,100060.81
2022-08-02T16:50:07.392Z,100064.34
2022-08-02T16:52:12.550Z,100062.56
2022-08-02T16:54:45.335Z,100059.06
2022-08-02T16:57:23.959Z,100062.50
2022-08-02T17:00:16.227Z,100059.34
2022-08-02T17:02:47.500Z,100066.41
2022-08-02T17:05:17.278Z,100059.97
2022-08-02T17:08:07.529Z,100070.75
2022-08-02T17:10:43.008Z,100064.56
2022-08-02T17:13:13.419Z,100064.59
2022-08-02T17:16:15.753Z,100070.53
2022-08-02T17:18:37.443Z,100075.50
2022-08-02T17:21:14.534Z,100079.53
2022-08-02T17:24:07.839Z,100082.50
2022-08-02T17:26:37.915Z,100089.34
2022-08-02T17:29:16.042Z,100083.31
2022-08-02T17:32:02.419Z,100084.94
2022-08-02T17:34:36.134Z,100086.75
2022-08-02T17:37:05.832Z,100096.25
2022-08-02T17:39:44.381Z,100101.16
2022-08-02T17:42:23.125Z,100100.53
2022-08-02T17:44:53.720Z,100100.34
2022-08-02T17:47:23.433Z,100100.03
2022-08-02T17:49:59.711Z,100102.94
2022-08-02T17:52:51.867Z,100102.19
2022-08-02T17:55:18.252Z,100109.34
2022-08-02T17:57:57.194Z,100117.81
2022-08-02T18:00:38.008Z,100119.03
2022-08-02T18:03:08.060Z,100123.13
2022-08-02T18:05:40.135Z,100123.00
2022-08-02T18:08:23.640Z,100127.75
2022-08-02T18:10:54.497Z,100125.97
2022-08-02T18:13:23.715Z,100129.25
2022-08-02T18:15:57.183Z,100135.03
2022-08-02T18:18:29.642Z,100133.91
2022-08-02T18:21:15.571Z,100131.94
2022-08-02T18:23:49.733Z,100137.47
2022-08-02T18:26:28.538Z,100140.69
2022-08-02T18:28:58.205Z,100139.75
2022-08-02T18:31:27.248Z,100154.59
2022-08-02T18:34:01.992Z,100149.94
2022-08-02T18:36:32.419Z,100148.75
2022-08-02T18:39:08.209Z,100157.72
2022-08-02T18:41:38.156Z,100151.63
2022-08-02T18:44:07.392Z,100160.47
2022-08-02T18:46:35.753Z,100163.34
2022-08-02T18:49:14.753Z,100168.59
2022-08-02T18:51:54.357Z,100169.72
2022-08-02T18:54:30.699Z,100170.13
2022-08-02T18:56:59.501Z,100170.13
2022-08-02T18:59:29.248Z,100171.81
2022-08-02T19:02:06.216Z,100173.97
2022-08-02T19:04:34.438Z,100175.00
2022-08-02T19:07:07.397Z,100186.41
2022-08-02T19:09:40.017Z,100186.94
2022-08-02T19:12:28.374Z,100185.78
2022-08-02T19:14:59.030Z,100184.41
2022-08-02T19:17:55.166Z,100185.56
2022-08-02T19:20:19.364Z,100191.53
2022-08-02T19:22:53.751Z,100184.84
2022-08-02T19:25:27.931Z,100190.03
2022-08-02T19:27:57.138Z,100194.00
2022-08-02T19:30:27.755Z,100188.19
2022-08-02T19:32:59.647Z,100194.00
2022-08-02T19:35:34.290Z,100194.00
2022-08-02T19:38:10.317Z,100192.56
2022-08-02T19:40:43.831Z,100186.44
2022-08-02T19:44:27.374Z,100188.12
2022-08-02T19:46:01.978Z,100189.41
2022-08-02T19:48:30.054Z,100185.50
2022-08-02T19:51:01.520Z,100179.87
2022-08-02T19:53:47.428Z,100188.91
2022-08-02T19:56:20.501Z,100186.88
2022-08-02T19:58:52.023Z,100193.06
2022-08-02T20:01:27.007Z,100195.69
2022-08-02T20:04:13.732Z,100195.22
2022-08-02T20:06:45.491Z,100195.19
2022-08-02T20:09:16.624Z,100193.41
2022-08-02T20:11:46.469Z,100189.75
2022-08-02T20:14:26.643Z,100193.13
2022-08-02T20:16:57.663Z,100189.69
2022-08-02T20:19:29.040Z,100184.84
2022-08-02T20:21:59.989Z,100187.91
2022-08-02T20:24:31.788Z,100195.22
2022-08-02T20:27:02.941Z,100194.47
2022-08-02T20:29:45.185Z,100184.59
2022-08-02T20:32:23.283Z,100194.00
2022-08-02T20:34:53.515Z,100194.47
2022-08-02T20:38:00.339Z,100191.47
2022-08-02T20:40:16.802Z,100192.72
2022-08-02T20:42:47.696Z,100193.91
2022-08-02T20:45:18.617Z,100190.50
2022-08-02T20:47:50.755Z,100202.38
2022-08-02T20:50:42.786Z,100194.06
2022-08-02T20:53:24.000Z,100204.56
2022-08-02T20:55:56.092Z,100203.66
2022-08-02T20:58:26.812Z,100192.94
2022-08-02T21:00:59.890Z,100193.59
2022-08-02T21:03:39.452Z,100191.16
2022-08-02T21:06:15.123Z,100191.03
2022-08-02T21:11:34.016Z,100201.50
2022-08-02T21:14:07.865Z,100212.47
2022-08-02T21:16:37.972Z,100220.59
2022-08-02T21:19:09.658Z,100214.00
2022-08-02T21:21:54.878Z,100215.97
2022-08-02T21:24:24.835Z,100215.09
2022-08-02T21:26:52.847Z,100217.38
2022-08-02T21:29:24.622Z,100209.87
2022-08-02T21:31:53.956Z,100216.91
2022-08-02T21:34:27.558Z,100225.72
2022-08-02T21:36:59.878Z,100225.03
2022-08-02T21:39:38.023Z,100225.47
2022-08-02T21:42:07.313Z,100220.97
2022-08-02T21:44:37.128Z,100229.31
2022-08-02T21:47:11.099Z,100219.00
2022-08-02T21:52:27.795Z,100229.94
2022-08-02T21:54:56.907Z,100223.59
2022-08-02T21:57:26.323Z,100215.06
2022-08-02T22:00:06.476Z,100214.97
2022-08-02T22:02:36.513Z,100218.97
2022-08-02T22:05:06.652Z,100220.78
2022-08-02T22:07:42.038Z,100213.72
2022-08-02T22:10:17.978Z,100214.56
2022-08-02T22:12:48.850Z,100211.34
2022-08-02T22:15:25.888Z,100207.28
2022-08-02T22:18:07.274Z,100210.19
2022-08-02T22:20:44.965Z,100213.84
2022-08-02T22:23:22.715Z,100209.13
2022-08-02T22:26:08.285Z,100209.94
2022-08-02T22:28:51.111Z,100214.03
2022-08-02T22:31:39.604Z,100219.34
2022-08-02T22:34:38.309Z,100219.47
2022-08-02T22:37:02.660Z,100217.78
2022-08-02T22:39:42.172Z,100220.44
2022-08-02T22:42:30.022Z,100219.97
2022-08-02T22:45:00.104Z,100220.72
2022-08-02T22:47:38.790Z,100227.91
2022-08-02T22:50:21.411Z,100220.69
2022-08-02T22:52:52.908Z,100228.16
2022-08-02T22:55:23.891Z,100239.84
2022-08-02T22:58:03.509Z,100238.69
2022-08-02T22:59:03.541Z,100225.38
2022-08-02T22:59:12.946Z,100207.81
2022-08-02T23:00:36.942Z,100240.47
2022-08-02T23:03:07.184Z,100231.72
2022-08-02T23:05:37.178Z,100235.81
2022-08-02T23:08:11.023Z,100237.75
2022-08-02T23:10:44.274Z,100233.06
2022-08-02T23:13:18.742Z,100236.66
2022-08-02T23:16:08.913Z,100242.62
2022-08-02T23:18:58.625Z,100239.19
2022-08-02T23:22:00.738Z,100230.81
2022-08-02T23:24:27.700Z,100235.06
2022-08-02T23:26:57.115Z,100237.94
2022-08-02T23:29:27.807Z,100240.22
2022-08-02T23:31:57.495Z,100236.34
2022-08-02T23:34:30.498Z,100230.69
2022-08-02T23:37:05.614Z,100232.00
2022-08-02T23:39:40.598Z,100231.62
2022-08-02T23:42:11.923Z,100233.69
2022-08-02T23:44:42.826Z,100227.44
2022-08-02T23:47:12.630Z,100225.91
2022-08-02T23:49:43.239Z,100235.66
2022-08-02T23:52:14.270Z,100230.09
2022-08-02T23:54:46.488Z,100231.44
2022-08-02T23:57:20.548Z,100230.09
2022-08-02T23:59:52.628Z,100241.81
